createdAt,value
2023-01-12T00:01:44.801Z,6.41
2023-01-12T00:04:13.200Z,6.39
2023-01-12T00:06:40.695Z,6.33
2023-01-12T00:09:08.150Z,6.06
2023-01-12T00:11:36.365Z,6.48
2023-01-12T00:14:04.604Z,6.52
2023-01-12T00:16:34.918Z,6.45
2023-01-12T00:19:11.814Z,6.62
2023-01-12T00:21:59.369Z,6.76
2023-01-12T00:24:28.720Z,6.77
2023-01-12T00:26:56.836Z,6.73
2023-01-12T00:29:24.604Z,6.60
2023-01-12T00:31:52.992Z,6.63
2023-01-12T00:34:20.445Z,6.82
2023-01-12T00:36:47.991Z,6.51
2023-01-12T00:39:15.973Z,6.70
2023-01-12T00:42:01.942Z,6.20
2023-01-12T00:44:48.469Z,6.34
2023-01-12T00:47:16.069Z,6.19
2023-01-12T00:49:43.765Z,5.72
2023-01-12T00:52:29.504Z,6.41
2023-01-12T00:54:59.229Z,6.75
2023-01-12T00:57:26.783Z,6.82
2023-01-12T00:59:55.555Z,6.91
2023-01-12T01:02:23.611Z,6.70
2023-01-12T01:04:51.075Z,6.85
2023-01-12T01:07:18.717Z,7.13
2023-01-12T01:09:46.566Z,7.11
2023-01-12T01:12:13.889Z,7.25
2023-01-12T01:14:41.294Z,6.68
2023-01-12T01:17:08.960Z,6.92
2023-01-12T01:19:37.079Z,7.18
2023-01-12T01:22:04.548Z,7.19
2023-01-12T01:24:32.535Z,7.13
2023-01-12T01:26:59.908Z,7.07
2023-01-12T01:29:27.275Z,7.23
2023-01-12T01:31:55.382Z,7.27
2023-01-12T01:34:23.991Z,6.78
2023-01-12T01:36:51.408Z,6.90
2023-01-12T01:39:19.078Z,7.28
2023-01-12T01:41:48.047Z,6.94
2023-01-12T01:44:30.404Z,7.19
2023-01-12T01:47:02.885Z,7.14
2023-01-12T01:49:43.591Z,7.17
2023-01-12T01:52:16.989Z,7.23
2023-01-12T01:54:51.706Z,6.93
2023-01-12T01:57:19.354Z,7.32
2023-01-12T01:59:49.224Z,7.13
2023-01-12T02:02:16.718Z,7.13
2023-01-12T02:04:44.372Z,7.16
2023-01-12T02:07:12.127Z,7.28
2023-01-12T02:09:39.511Z,7.46
2023-01-12T02:12:26.117Z,7.54
2023-01-12T02:15:12.618Z,7.58
2023-01-12T02:18:13.791Z,7.38
2023-01-12T02:20:55.089Z,7.23
2023-01-12T02:23:22.359Z,7.40
2023-01-12T02:25:58.636Z,7.28
2023-01-12T02:28:31.066Z,7.16
2023-01-12T02:31:26.538Z,6.55
2023-01-12T02:34:25.064Z,6.41
2023-01-12T02:36:58.743Z,5.58
2023-01-12T02:39:39.165Z,6.25
2023-01-12T02:42:40.842Z,6.35
2023-01-12T02:45:17.271Z,6.62
2023-01-12T02:47:44.725Z,6.73
2023-01-12T02:50:14.483Z,6.75
2023-01-12T02:52:43.477Z,7.09
2023-01-12T02:55:11.094Z,7.20
2023-01-12T02:57:38.442Z,7.25
2023-01-12T03:00:06.241Z,7.01
2023-01-12T03:02:33.853Z,7.25
2023-01-12T03:05:01.262Z,7.36
2023-01-12T03:07:41.384Z,7.16
2023-01-12T03:10:28.131Z,7.10
2023-01-12T03:12:55.632Z,6.96
2023-01-12T03:15:23.159Z,7.41
2023-01-12T03:17:58.394Z,7.17
2023-01-12T03:20:28.839Z,7.46
2023-01-12T03:22:59.699Z,7.60
2023-01-12T03:25:27.320Z,7.56
2023-01-12T03:27:55.520Z,7.74
2023-01-12T03:30:30.283Z,7.89
2023-01-12T03:32:57.967Z,7.23
2023-01-12T03:35:26.674Z,7.22
2023-01-12T03:38:07.965Z,7.43
2023-01-12T03:40:38.030Z,7.06
2023-01-12T03:43:28.757Z,6.86
2023-01-12T03:46:19.079Z,7.27
2023-01-12T03:48:48.455Z,7.40
2023-01-12T03:51:19.950Z,7.39
2023-01-12T03:53:49.384Z,7.55
2023-01-12T03:56:17.896Z,7.63
2023-01-12T03:58:45.289Z,7.40
2023-01-12T04:01:12.716Z,7.01
2023-01-12T04:03:40.438Z,7.26
2023-01-12T04:06:08.430Z,7.42
2023-01-12T04:08:35.791Z,7.46
2023-01-12T04:11:26.445Z,7.61
2023-01-12T04:13:53.778Z,7.52
2023-01-12T04:16:21.418Z,7.55
2023-01-12T04:18:49.001Z,7.76
2023-01-12T04:21:34.940Z,7.67
2023-01-12T04:24:02.586Z,7.44
2023-01-12T04:26:29.939Z,7.52
2023-01-12T04:28:57.261Z,7.47
2023-01-12T04:31:24.943Z,7.32
2023-01-12T04:33:52.334Z,7.55
2023-01-12T04:36:19.692Z,7.26
2023-01-12T04:38:47.397Z,7.61
2023-01-12T04:41:14.825Z,7.59
2023-01-12T04:43:42.203Z,7.61
2023-01-12T04:46:10.611Z,7.73
2023-01-12T04:48:43.593Z,7.74
2023-01-12T04:51:11.255Z,7.73
2023-01-12T04:53:38.693Z,7.89
2023-01-12T04:56:06.678Z,7.74
2023-01-12T04:58:35.037Z,7.67
2023-01-12T05:01:12.302Z,7.97
2023-01-12T05:03:40.032Z,7.74
2023-01-12T05:06:07.458Z,7.77
2023-01-12T05:08:53.700Z,7.73
2023-01-12T05:11:21.359Z,7.76
2023-01-12T05:13:48.633Z,7.45
2023-01-12T05:16:17.317Z,7.21
2023-01-12T05:18:45.367Z,7.30
2023-01-12T05:21:15.583Z,7.43
2023-01-12T05:23:42.986Z,7.59
2023-01-12T05:26:10.900Z,7.66
2023-01-12T05:28:38.285Z,7.42
2023-01-12T05:31:07.675Z,6.94
2023-01-12T05:33:35.709Z,6.89
2023-01-12T05:36:14.399Z,6.26
2023-01-12T05:38:42.021Z,6.49
2023-01-12T05:41:10.551Z,6.99
2023-01-12T05:43:54.373Z,7.20
2023-01-12T05:46:29.658Z,7.45
2023-01-12T05:48:57.860Z,6.64
2023-01-12T05:51:26.280Z,7.13
2023-01-12T05:53:54.689Z,7.29
2023-01-12T05:56:25.673Z,7.34
2023-01-12T05:58:54.730Z,7.78
2023-01-12T06:01:22.586Z,7.36
2023-01-12T06:03:56.960Z,6.91
2023-01-12T06:06:26.156Z,6.63
2023-01-12T06:08:53.983Z,6.71
2023-01-12T06:11:40.074Z,6.25
2023-01-12T06:14:07.708Z,6.22
2023-01-12T06:16:36.966Z,6.35
2023-01-12T06:19:04.402Z,6.47
2023-01-12T06:21:32.726Z,6.82
2023-01-12T06:24:00.043Z,7.08
2023-01-12T06:26:27.442Z,7.26
2023-01-12T06:28:55.097Z,7.23
2023-01-12T06:31:22.491Z,7.15
2023-01-12T06:33:49.964Z,7.53
2023-01-12T06:36:17.574Z,7.76
2023-01-12T06:38:44.928Z,7.64
2023-01-12T06:41:32.882Z,7.76
2023-01-12T06:44:00.656Z,7.90
2023-01-12T06:46:28.347Z,8.03
2023-01-12T06:48:57.145Z,7.90
2023-01-12T06:51:24.999Z,7.69
2023-01-12T06:53:52.423Z,7.68
2023-01-12T06:56:19.798Z,8.15
2023-01-12T06:58:47.434Z,6.81
2023-01-12T07:01:14.929Z,7.64
2023-01-12T07:03:42.452Z,7.75
2023-01-12T07:06:10.342Z,7.92
2023-01-12T07:08:37.750Z,8.03
2023-01-12T07:11:07.927Z,7.62
2023-01-12T07:13:35.577Z,8.21
2023-01-12T07:16:03.081Z,8.03
2023-01-12T07:18:33.537Z,7.71
2023-01-12T07:21:08.942Z,7.94
2023-01-12T07:23:37.818Z,7.50
2023-01-12T07:26:05.522Z,7.77
2023-01-12T07:28:33.858Z,7.64
2023-01-12T07:31:02.265Z,8.19
2023-01-12T07:33:29.924Z,7.72
2023-01-12T07:35:59.009Z,8.14
2023-01-12T07:38:27.326Z,8.32
2023-01-12T07:40:54.973Z,8.53
2023-01-12T07:43:23.369Z,8.66
2023-01-12T07:45:50.728Z,8.80
2023-01-12T07:48:18.426Z,8.94
2023-01-12T07:50:45.788Z,8.91
2023-01-12T07:53:13.170Z,8.93
2023-01-12T07:55:43.689Z,9.04
2023-01-12T07:58:11.124Z,9.05
2023-01-12T08:00:38.483Z,9.17
2023-01-12T08:03:07.861Z,9.39
2023-01-12T08:05:35.647Z,9.34
2023-01-12T08:08:03.767Z,9.28
2023-01-12T08:10:31.538Z,9.29
2023-01-12T08:12:59.123Z,9.24
2023-01-12T08:15:26.533Z,9.41
2023-01-12T08:18:08.520Z,9.46
2023-01-12T08:20:36.241Z,9.44
2023-01-12T08:23:26.098Z,9.74
2023-01-12T08:25:59.213Z,9.81
2023-01-12T08:28:33.827Z,10.00
2023-01-12T08:31:01.356Z,10.05
2023-01-12T08:33:29.006Z,10.20
2023-01-12T08:35:56.383Z,9.86
2023-01-12T08:38:23.765Z,10.04
2023-01-12T08:41:12.297Z,10.10
2023-01-12T08:43:58.309Z,9.57
2023-01-12T08:46:26.274Z,9.71
2023-01-12T08:48:53.997Z,9.67
2023-01-12T08:51:21.395Z,9.58
2023-01-12T08:53:49.160Z,9.57
2023-01-12T08:56:16.581Z,9.58
2023-01-12T08:58:44.012Z,9.18
2023-01-12T09:01:14.028Z,9.56
2023-01-12T09:03:41.721Z,9.77
2023-01-12T09:06:15.846Z,8.84
2023-01-12T09:08:43.733Z,9.03
2023-01-12T09:11:11.609Z,8.94
2023-01-12T09:13:39.066Z,8.93
2023-01-12T09:16:12.729Z,9.54
2023-01-12T09:18:41.050Z,9.58
2023-01-12T09:21:13.037Z,9.70
2023-01-12T09:23:40.469Z,9.97
2023-01-12T09:26:09.480Z,9.53
2023-01-12T09:28:37.138Z,9.62
2023-01-12T09:31:08.745Z,9.20
2023-01-12T09:33:36.779Z,9.15
2023-01-12T09:36:06.145Z,9.41
2023-01-12T09:38:40.446Z,10.09
2023-01-12T09:41:16.780Z,10.16
2023-01-12T09:44:03.063Z,10.34
2023-01-12T09:46:54.039Z,9.54
2023-01-12T09:49:22.636Z,9.97
2023-01-12T09:51:54.320Z,9.68
2023-01-12T09:54:21.721Z,8.47
2023-01-12T09:57:24.411Z,9.81
2023-01-12T10:00:03.640Z,9.32
2023-01-12T10:02:42.094Z,9.27
2023-01-12T10:05:18.094Z,9.68
2023-01-12T10:07:45.514Z,10.10
2023-01-12T10:10:16.083Z,9.23
2023-01-12T10:12:46.451Z,9.25
2023-01-12T10:15:26.077Z,9.34
2023-01-12T10:18:15.487Z,9.17
2023-01-12T10:20:43.581Z,9.05
2023-01-12T10:23:16.796Z,9.56
2023-01-12T10:25:51.979Z,9.79
2023-01-12T10:28:33.402Z,9.65
2023-01-12T10:31:01.222Z,10.25
2023-01-12T10:33:30.237Z,10.58
2023-01-12T10:36:07.480Z,10.30
2023-01-12T10:38:39.302Z,10.84
2023-01-12T10:41:14.050Z,10.84
2023-01-12T10:43:41.973Z,10.17
2023-01-12T10:46:09.304Z,10.07
2023-01-12T10:48:38.929Z,8.72
2023-01-12T10:51:30.271Z,9.22
2023-01-12T10:54:10.179Z,9.29
2023-01-12T10:56:42.018Z,10.26
2023-01-12T10:59:12.431Z,10.66
2023-01-12T11:01:46.935Z,10.55
2023-01-12T11:04:16.848Z,9.13
2023-01-12T11:06:45.422Z,9.40
2023-01-12T11:09:22.953Z,8.99
2023-01-12T11:11:54.239Z,9.39
2023-01-12T11:14:26.626Z,9.53
2023-01-12T11:16:54.722Z,10.02
2023-01-12T11:19:26.670Z,9.65
2023-01-12T11:21:57.746Z,9.92
2023-01-12T11:24:42.367Z,9.49
2023-01-12T11:27:20.933Z,9.50
2023-01-12T11:30:02.305Z,8.98
2023-01-12T11:32:42.238Z,9.53
2023-01-12T11:35:30.075Z,9.95
2023-01-12T11:37:59.915Z,9.89
2023-01-12T11:40:34.636Z,9.52
2023-01-12T11:43:44.153Z,9.20
2023-01-12T11:46:17.214Z,9.83
2023-01-12T11:49:25.367Z,9.41
2023-01-12T11:51:56.909Z,9.66
2023-01-12T11:54:28.445Z,9.41
2023-01-12T11:57:14.032Z,9.45
2023-01-12T11:59:59.933Z,8.91
2023-01-12T12:02:40.634Z,9.17
2023-01-12T12:05:23.478Z,9.85
2023-01-12T12:08:24.485Z,10.06
2023-01-12T12:11:20.005Z,10.32
2023-01-12T12:14:12.159Z,9.89
2023-01-12T12:16:51.579Z,10.57
2023-01-12T12:19:48.407Z,10.35
2023-01-12T12:22:30.912Z,10.44
2023-01-12T12:25:28.529Z,11.01
2023-01-12T12:28:02.084Z,10.82
2023-01-12T12:30:57.880Z,10.99
2023-01-12T12:33:50.274Z,10.83
2023-01-12T12:36:45.837Z,10.94
2023-01-12T12:39:48.118Z,10.66
2023-01-12T12:42:33.999Z,10.73
2023-01-12T12:45:16.455Z,10.71
2023-01-12T12:48:02.108Z,11.07
2023-01-12T12:50:39.833Z,11.29
2023-01-12T12:53:25.296Z,11.20
2023-01-12T12:55:53.403Z,10.96
2023-01-12T12:58:20.695Z,11.01
2023-01-12T13:00:49.007Z,11.31
2023-01-12T13:03:45.011Z,10.91
2023-01-12T13:06:34.847Z,11.23
2023-01-12T13:09:10.555Z,10.87
2023-01-12T13:12:00.187Z,11.24
2023-01-12T13:14:31.100Z,10.09
2023-01-12T13:17:18.555Z,10.28
2023-01-12T13:19:49.734Z,10.75
2023-01-12T13:22:32.362Z,11.28
2023-01-12T13:25:09.939Z,11.35
2023-01-12T13:28:09.551Z,11.28
2023-01-12T13:30:51.249Z,11.35
2023-01-12T13:33:29.053Z,11.10
2023-01-12T13:36:01.013Z,11.39
2023-01-12T13:38:36.233Z,11.24
2023-01-12T13:41:41.046Z,11.16
2023-01-12T13:44:11.810Z,11.22
2023-01-12T13:46:47.132Z,11.09
2023-01-12T13:49:29.666Z,10.90
2023-01-12T13:52:21.560Z,11.17
2023-01-12T13:54:49.908Z,11.28
2023-01-12T13:57:24.876Z,11.11
2023-01-12T13:59:58.127Z,11.19
2023-01-12T14:02:28.278Z,10.86
2023-01-12T14:05:14.694Z,10.60
2023-01-12T14:07:52.800Z,11.06
2023-01-12T14:10:42.437Z,11.14
2023-01-12T14:13:32.689Z,11.15
2023-01-12T14:16:19.664Z,11.10
2023-01-12T14:18:48.489Z,11.10
2023-01-12T14:21:39.353Z,10.96
2023-01-12T14:24:26.938Z,11.04
2023-01-12T14:26:54.580Z,10.92
2023-01-12T14:29:21.967Z,10.97
2023-01-12T14:31:51.180Z,11.01
2023-01-12T14:34:29.548Z,10.78
2023-01-12T14:36:57.954Z,10.85
2023-01-12T14:39:26.857Z,10.93
2023-01-12T14:42:13.814Z,10.52
2023-01-12T14:45:11.014Z,10.48
2023-01-12T14:47:38.852Z,10.55
2023-01-12T14:50:12.454Z,10.49
2023-01-12T14:52:40.919Z,10.59
2023-01-12T14:55:28.245Z,10.42
2023-01-12T14:58:01.797Z,10.25
2023-01-12T15:00:34.410Z,10.16
2023-01-12T15:03:04.824Z,10.13
2023-01-12T15:05:33.430Z,9.96
2023-01-12T15:08:04.250Z,9.97
2023-01-12T15:10:36.220Z,9.89
2023-01-12T15:13:24.866Z,9.87
2023-01-12T15:16:11.100Z,9.91
2023-01-12T15:18:57.390Z,9.89
2023-01-12T15:21:43.909Z,9.83
2023-01-12T15:24:49.205Z,9.85
2023-01-12T15:27:18.394Z,9.98
2023-01-12T15:29:45.919Z,9.77
2023-01-12T15:32:20.574Z,9.69
2023-01-12T15:34:48.324Z,9.35
2023-01-12T15:37:16.834Z,9.43
2023-01-12T15:39:44.494Z,9.20
2023-01-12T15:42:16.169Z,9.00
2023-01-12T15:44:46.119Z,9.13
2023-01-12T15:47:14.743Z,9.30
2023-01-12T15:49:43.109Z,9.09
2023-01-12T15:52:14.853Z,9.24
2023-01-12T15:54:42.835Z,9.27
2023-01-12T15:57:13.734Z,9.19
2023-01-12T15:59:41.242Z,9.06
2023-01-12T16:02:34.150Z,9.10
2023-01-12T16:05:03.066Z,9.19
2023-01-12T16:07:30.515Z,9.13
2023-01-12T16:09:58.125Z,8.84
2023-01-12T16:12:26.096Z,8.98
2023-01-12T16:14:53.602Z,9.04
2023-01-12T16:17:20.961Z,8.98
2023-01-12T16:19:48.605Z,9.06
2023-01-12T16:22:17.890Z,8.82
2023-01-12T16:24:45.348Z,8.58
2023-01-12T16:27:13.092Z,8.46
2023-01-12T16:29:40.456Z,8.58
2023-01-12T16:32:07.912Z,8.39
2023-01-12T16:34:35.925Z,8.39
2023-01-12T16:37:03.436Z,8.37
2023-01-12T16:39:31.001Z,8.45
2023-01-12T16:42:03.605Z,8.52
2023-01-12T16:44:31.815Z,8.43
2023-01-12T16:46:59.431Z,8.53
2023-01-12T16:49:26.849Z,7.99
2023-01-12T16:51:54.439Z,8.23
2023-01-12T16:54:22.138Z,8.27
2023-01-12T16:56:49.569Z,8.27
2023-01-12T16:59:16.941Z,8.49
2023-01-12T17:01:44.669Z,8.26
2023-01-12T17:04:12.491Z,7.92
2023-01-12T17:06:40.317Z,7.84
2023-01-12T17:09:08.242Z,8.19
2023-01-12T17:11:35.795Z,8.11
2023-01-12T17:14:23.096Z,8.32
2023-01-12T17:16:58.031Z,8.13
2023-01-12T17:19:26.194Z,8.10
2023-01-12T17:21:54.894Z,7.99
2023-01-12T17:24:22.573Z,8.31
2023-01-12T17:26:51.608Z,7.72
2023-01-12T17:29:20.551Z,7.64
2023-01-12T17:31:48.180Z,7.86
2023-01-12T17:34:15.656Z,7.61
2023-01-12T17:36:43.525Z,7.99
2023-01-12T17:39:10.896Z,8.07
2023-01-12T17:41:57.209Z,7.91
2023-01-12T17:44:24.838Z,7.79
2023-01-12T17:46:52.472Z,8.05
2023-01-12T17:49:19.830Z,8.18
2023-01-12T17:51:47.804Z,8.11
2023-01-12T17:54:15.507Z,7.70
2023-01-12T17:56:43.024Z,7.55
2023-01-12T17:59:18.185Z,7.58
2023-01-12T18:01:46.191Z,7.94
2023-01-12T18:04:14.181Z,8.06
2023-01-12T18:06:41.580Z,7.66
2023-01-12T18:09:10.456Z,7.59
2023-01-12T18:11:38.671Z,7.94
2023-01-12T18:14:06.026Z,7.94
2023-01-12T18:16:33.449Z,7.57
2023-01-12T18:19:05.874Z,7.82
2023-01-12T18:21:33.337Z,8.01
2023-01-12T18:24:01.020Z,7.72
2023-01-12T18:26:32.993Z,7.61
2023-01-12T18:29:00.684Z,7.55
2023-01-12T18:31:31.468Z,7.80
2023-01-12T18:34:05.383Z,7.94
2023-01-12T18:36:37.452Z,7.93
2023-01-12T18:39:06.313Z,7.89
2023-01-12T18:41:56.401Z,7.85
2023-01-12T18:44:24.242Z,7.94
2023-01-12T18:47:10.639Z,7.82
2023-01-12T18:49:39.605Z,7.69
2023-01-12T18:52:27.526Z,7.59
2023-01-12T18:54:55.248Z,7.73
2023-01-12T18:57:24.409Z,7.69
2023-01-12T18:59:54.176Z,7.91
2023-01-12T19:02:21.895Z,7.84
2023-01-12T19:04:49.720Z,7.47
2023-01-12T19:07:19.276Z,7.59
2023-01-12T19:09:46.887Z,7.56
2023-01-12T19:12:14.495Z,7.46
2023-01-12T19:15:00.866Z,7.81
2023-01-12T19:17:29.813Z,7.66
2023-01-12T19:19:58.104Z,7.61
2023-01-12T19:22:44.504Z,7.59
2023-01-12T19:25:35.596Z,7.68
2023-01-12T19:28:22.177Z,7.77
2023-01-12T19:30:49.824Z,7.32
2023-01-12T19:33:17.337Z,7.51
2023-01-12T19:35:45.368Z,7.39
2023-01-12T19:38:13.876Z,7.49
2023-01-12T19:40:46.583Z,7.63
2023-01-12T19:43:23.464Z,7.57
2023-01-12T19:45:51.551Z,7.37
2023-01-12T19:48:20.978Z,7.54
2023-01-12T19:50:48.486Z,7.50
2023-01-12T19:53:18.588Z,7.26
2023-01-12T19:55:46.378Z,7.35
2023-01-12T19:58:13.946Z,6.80
2023-01-12T20:00:46.246Z,7.28
2023-01-12T20:03:15.122Z,7.30
2023-01-12T20:05:42.969Z,7.44
2023-01-12T20:08:11.259Z,7.41
2023-01-12T20:10:38.949Z,7.53
2023-01-12T20:13:06.748Z,7.40
2023-01-12T20:15:34.517Z,7.32
2023-01-12T20:18:03.095Z,7.12
2023-01-12T20:20:30.428Z,7.10
2023-01-12T20:22:57.789Z,6.81
2023-01-12T20:25:27.942Z,7.05
2023-01-12T20:27:55.512Z,7.18
2023-01-12T20:30:37.108Z,6.93
2023-01-12T20:33:06.486Z,7.04
2023-01-12T20:35:35.015Z,6.81
2023-01-12T20:38:03.151Z,6.54
2023-01-12T20:40:30.793Z,6.78
2023-01-12T20:42:58.415Z,6.30
2023-01-12T20:45:25.747Z,6.24
2023-01-12T20:47:53.386Z,5.92
2023-01-12T20:50:20.777Z,6.14
2023-01-12T20:52:49.094Z,6.11
2023-01-12T20:55:16.776Z,6.35
2023-01-12T20:57:44.156Z,6.71
2023-01-12T21:00:12.524Z,6.43
2023-01-12T21:02:40.604Z,6.33
2023-01-12T21:05:08.901Z,6.16
2023-01-12T21:07:36.309Z,6.34
2023-01-12T21:10:04.320Z,6.23
2023-01-12T21:12:31.751Z,5.89
2023-01-12T21:14:59.096Z,6.42
2023-01-12T21:17:26.717Z,6.43
2023-01-12T21:19:54.086Z,6.42
2023-01-12T21:22:21.464Z,5.94
2023-01-12T21:24:50.385Z,5.81
2023-01-12T21:27:17.761Z,5.73
2023-01-12T21:29:45.907Z,5.94
2023-01-12T21:32:13.928Z,6.42
2023-01-12T21:34:41.260Z,6.33
2023-01-12T21:37:08.719Z,6.58
2023-01-12T21:39:36.479Z,6.56
2023-01-12T21:42:22.379Z,6.76
2023-01-12T21:44:50.115Z,6.70
2023-01-12T21:47:17.480Z,6.48
2023-01-12T21:49:44.857Z,6.14
2023-01-12T21:52:12.556Z,6.62
2023-01-12T21:54:39.955Z,6.06
2023-01-12T21:57:07.304Z,5.82
2023-01-12T21:59:34.933Z,6.45
2023-01-12T22:02:02.461Z,6.52
2023-01-12T22:04:32.051Z,6.31
2023-01-12T22:06:59.416Z,5.73
2023-01-12T22:09:29.293Z,5.72
2023-01-12T22:11:56.874Z,6.07
2023-01-12T22:14:24.322Z,6.02
2023-01-12T22:16:51.822Z,6.33
2023-01-12T22:19:19.442Z,5.95
2023-01-12T22:21:46.968Z,6.53
2023-01-12T22:24:14.333Z,6.56
2023-01-12T22:26:41.929Z,6.44
2023-01-12T22:29:09.261Z,6.15
2023-01-12T22:31:36.764Z,6.71
2023-01-12T22:34:04.863Z,6.60
2023-01-12T22:36:34.871Z,6.80
2023-01-12T22:39:02.702Z,7.01
2023-01-12T22:41:30.329Z,6.70
2023-01-12T22:43:57.741Z,6.55
2023-01-12T22:46:25.858Z,6.73
2023-01-12T22:48:57.246Z,6.60
2023-01-12T22:51:25.291Z,6.47
2023-01-12T22:53:55.900Z,6.49
2023-01-12T22:56:23.314Z,6.28
2023-01-12T22:58:51.961Z,6.54
2023-01-12T23:01:20.103Z,6.69
2023-01-12T23:03:48.562Z,6.22
2023-01-12T23:06:16.294Z,6.60
2023-01-12T23:08:44.374Z,6.77
2023-01-12T23:11:13.526Z,6.60
2023-01-12T23:13:41.683Z,6.40
2023-01-12T23:16:10.052Z,6.64
2023-01-12T23:18:38.715Z,6.05
2023-01-12T23:21:26.525Z,6.24
2023-01-12T23:23:55.900Z,6.37
2023-01-12T23:26:31.245Z,6.68
2023-01-12T23:29:00.294Z,6.59
2023-01-12T23:31:29.377Z,6.26
2023-01-12T23:33:59.849Z,6.44
2023-01-12T23:36:28.859Z,6.21
2023-01-12T23:39:00.280Z,6.37
2023-01-12T23:41:28.517Z,6.51
2023-01-12T23:43:57.522Z,6.43
2023-01-12T23:46:25.265Z,6.58
2023-01-12T23:48:54.503Z,6.53
2023-01-12T23:51:21.967Z,5.86
2023-01-12T23:53:51.955Z,6.29
2023-01-12T23:56:19.812Z,6.56
2023-01-12T23:58:47.825Z,6.56
